Time;durP1;ratioP1;P1;durP2;ratioP2;P2;SDS_P1;SDS_P2;PMS_P1;PMS_P2;Temp;Humidity;BMP_temperature;BMP_pressure;BME280_temperature;BME280_humidity;BME280_pressure;Samples;Min_cycle;Max_cycle;Signal;HPM_P1;HPM_P2
2022/07/06 00:00:06;;;;;;;9.00;4.10;;;;;;;17.59;82.62;100568.88;104364;1277;96934;-69
2022/07/06 00:02:54;;;;;;;6.20;4.20;;;;;;;17.54;82.59;100572.49;104395;1277;94306;-70
2022/07/06 00:05:22;;;;;;;6.60;4.40;;;;;;;17.51;82.68;100573.20;104281;1278;138667;-71
2022/07/06 00:07:50;;;;;;;6.00;3.80;;;;;;;17.49;82.76;100572.40;104387;1277;99400;-70
2022/07/06 00:10:18;;;;;;;5.60;3.90;;;;;;;17.46;82.50;100572.04;104307;1277;138856;-70
2022/07/06 00:12:46;;;;;;;6.40;3.60;;;;;;;17.44;82.69;100574.31;104354;1276;94388;-70
2022/07/06 00:15:14;;;;;;;6.30;4.10;;;;;;;17.39;82.68;100577.08;104319;1278;94388;-70
2022/07/06 00:17:42;;;;;;;7.00;3.80;;;;;;;17.32;82.70;100574.50;104303;1277;139313;-70
2022/07/06 00:20:10;;;;;;;8.20;4.30;;;;;;;17.29;82.53;100576.30;104412;1277;99344;-70
2022/07/06 00:22:38;;;;;;;6.50;3.90;;;;;;;17.26;82.75;100573.77;104263;1278;139188;-70
2022/07/06 00:25:06;;;;;;;5.20;3.70;;;;;;;17.23;82.77;100569.80;104334;1277;95120;-71
2022/07/06 00:27:34;;;;;;;7.70;3.90;;;;;;;17.21;82.93;100569.19;104272;1278;94426;-69
2022/07/06 00:30:02;;;;;;;6.60;3.60;;;;;;;17.23;82.91;100559.40;104296;1277;109124;-70
2022/07/06 00:32:30;;;;;;;7.20;3.60;;;;;;;17.24;82.80;100559.36;104315;1278;99441;-71
2022/07/06 00:34:58;;;;;;;7.90;4.10;;;;;;;17.25;82.99;100558.05;104168;1277;138656;-70
2022/07/06 00:37:26;;;;;;;6.20;4.10;;;;;;;17.24;82.64;100557.02;104236;1277;94426;-70
2022/07/06 00:39:54;;;;;;;7.30;4.00;;;;;;;17.23;82.86;100549.88;104195;1277;138611;-70
2022/07/06 00:42:24;;;;;;;6.30;3.80;;;;;;;17.24;82.71;100547.50;104312;1278;108217;-70
2022/07/06 00:44:52;;;;;;;7.00;4.40;;;;;;;17.19;82.66;100543.82;104322;1277;99549;-70
2022/07/06 00:47:20;;;;;;;6.90;4.10;;;;;;;17.16;82.73;100543.24;104165;1278;138882;-70
2022/07/06 00:52:34;;;;;;;6.40;4.00;;;;;;;17.11;83.00;100541.89;104195;1277;138745;-70
2022/07/06 00:55:03;;;;;;;8.30;4.40;;;;;;;17.09;82.94;100540.23;104268;1277;108344;-70
2022/07/06 00:57:31;;;;;;;7.70;4.20;;;;;;;17.07;83.07;100537.61;104264;1277;98372;-70
2022/07/06 00:59:59;;;;;;;6.60;4.00;;;;;;;17.08;83.26;100535.59;104212;1277;138429;-70
2022/07/06 01:02:31;;;;;;;6.20;3.80;;;;;;;17.09;83.06;100524.77;104294;1277;94313;-70
2022/07/06 01:04:59;;;;;;;7.20;4.40;;;;;;;17.07;83.17;100524.36;104109;1278;138786;-70
2022/07/06 01:07:28;;;;;;;8.40;4.20;;;;;;;17.07;83.34;100521.85;104252;1277;108370;-71
2022/07/06 01:09:56;;;;;;;6.80;4.30;;;;;;;17.03;83.53;100513.95;104192;1278;139047;-70
2022/07/06 01:12:24;;;;;;;6.50;4.30;;;;;;;17.01;83.64;100520.15;104151;1276;108908;-70
2022/07/06 01:14:53;;;;;;;6.40;3.80;;;;;;;17.01;83.51;100525.89;104234;1278;94394;-70
2022/07/06 01:17:21;;;;;;;6.50;3.70;;;;;;;17.02;83.47;100521.90;104140;1277;138542;-72
2022/07/06 01:19:49;;;;;;;7.40;4.00;;;;;;;17.07;83.44;100524.33;104176;1278;108244;-72
2022/07/06 01:22:18;;;;;;;6.70;4.20;;;;;;;17.08;82.96;100522.66;104148;1278;139099;-70
2022/07/06 01:24:46;;;;;;;7.50;4.30;;;;;;;17.09;83.20;100520.13;104238;1278;108825;-70
2022/07/06 01:27:14;;;;;;;7.40;3.90;;;;;;;17.07;83.24;100515.38;104290;1277;94674;-70
2022/07/06 01:29:41;;;;;;;9.10;4.10;;;;;;;17.05;83.42;100511.89;104214;1277;137950;-70
2022/07/06 01:32:09;;;;;;;6.40;4.40;;;;;;;17.06;83.64;100511.27;104255;1277;108738;-70
2022/07/06 01:34:37;;;;;;;7.10;4.20;;;;;;;17.04;83.43;100509.04;104198;1278;139188;-70
2022/07/06 01:37:05;;;;;;;6.30;3.90;;;;;;;17.02;83.37;100514.69;104213;1277;109406;-71
2022/07/06 01:39:33;;;;;;;7.70;4.10;;;;;;;17.05;83.32;100515.45;104284;1277;94602;-69
2022/07/06 01:42:01;;;;;;;7.30;4.40;;;;;;;17.09;83.03;100516.16;104254;1277;94430;-70
2022/07/06 01:44:29;;;;;;;6.10;4.00;;;;;;;17.10;82.90;100518.25;104253;1277;108302;-70
2022/07/06 01:46:57;;;;;;;8.70;3.50;;;;;;;17.11;82.51;100517.12;104147;1278;138500;-70
2022/07/06 01:49:25;;;;;;;8.40;4.30;;;;;;;17.09;82.18;100515.60;104247;1276;108742;-71
2022/07/06 01:51:54;;;;;;;7.90;4.10;;;;;;;17.01;82.16;100517.06;104152;1277;138572;-71
2022/07/06 01:54:22;;;;;;;6.10;3.60;;;;;;;16.92;82.42;100516.49;104267;1277;94329;-70
2022/07/06 01:56:50;;;;;;;7.00;3.50;;;;;;;16.83;83.13;100512.97;104192;1277;107283;-69
2022/07/06 01:59:18;;;;;;;7.20;3.50;;;;;;;16.76;83.19;100507.96;104151;1278;139254;-70
2022/07/06 02:01:46;;;;;;;5.50;2.90;;;;;;;16.74;83.33;100508.39;104228;1277;108044;-69
2022/07/06 02:04:14;;;;;;;5.90;3.50;;;;;;;16.70;83.67;100501.78;104106;1278;139476;-70
2022/07/06 02:06:42;;;;;;;6.80;3.50;;;;;;;16.63;83.84;100503.02;104298;1277;94331;-70
2022/07/06 02:09:10;;;;;;;5.30;3.30;;;;;;;16.60;83.79;100500.64;104273;1277;108384;-70
2022/07/06 02:11:38;;;;;;;8.90;3.50;;;;;;;16.56;83.97;100496.91;104148;1278;138794;-70
2022/07/06 02:14:06;;;;;;;5.90;3.20;;;;;;;16.54;84.00;100499.15;104295;1277;108817;-71
2022/07/06 02:16:35;;;;;;;7.30;2.90;;;;;;;16.54;84.21;100495.56;104153;1277;138973;-70
2022/07/06 02:19:03;;;;;;;6.50;3.10;;;;;;;16.52;84.30;100498.16;104305;1277;94537;-70
2022/07/06 02:21:31;;;;;;;7.00;3.60;;;;;;;16.51;84.39;100497.17;104259;1277;107436;-70
2022/07/06 02:24:00;;;;;;;7.30;3.50;;;;;;;16.52;84.59;100497.48;104198;1277;139284;-70
2022/07/06 02:26:29;;;;;;;8.40;3.70;;;;;;;16.50;84.56;100498.80;104399;1277;108790;-70
2022/07/06 02:28:57;;;;;;;8.70;3.60;;;;;;;16.53;84.68;100500.98;104108;1278;139112;-70
2022/07/06 02:31:26;;;;;;;8.10;3.90;;;;;;;16.58;84.47;100499.70;104242;1277;94289;-70
2022/07/06 02:33:54;;;;;;;10.20;4.60;;;;;;;16.61;84.41;100503.69;104250;1277;138022;-71
2022/07/06 02:36:21;;;;;;;11.10;5.00;;;;;;;16.63;84.40;100506.95;104561;1277;99427;-70
2022/07/06 02:38:49;;;;;;;8.70;4.00;;;;;;;16.70;84.15;100514.69;104377;1277;107154;-70
2022/07/06 02:41:17;;;;;;;8.40;4.30;;;;;;;16.74;83.79;100511.96;104160;1277;139331;-70
2022/07/06 02:43:45;;;;;;;9.00;4.10;;;;;;;16.74;83.72;100513.94;104273;1275;94307;-70
2022/07/06 02:46:14;;;;;;;9.90;4.10;;;;;;;16.76;83.78;100513.83;104183;1277;139199;-71
2022/07/06 02:48:42;;;;;;;8.10;4.10;;;;;;;16.83;83.71;100512.23;104671;1277;98310;-70
2022/07/06 02:51:10;;;;;;;7.50;4.00;;;;;;;16.89;83.79;100513.59;104329;1276;109621;-70
2022/07/06 02:53:38;;;;;;;8.10;3.70;;;;;;;16.90;84.00;100513.19;104221;1277;139275;-71
2022/07/06 02:56:07;;;;;;;7.70;4.00;;;;;;;16.88;83.82;100511.09;104440;1277;94324;-71
2022/07/06 02:58:35;;;;;;;9.30;4.60;;;;;;;16.85;83.80;100504.08;104200;1277;138003;-69
2022/07/06 03:01:03;;;;;;;9.60;4.60;;;;;;;16.80;83.80;100501.62;104404;1275;99413;-70
2022/07/06 03:03:31;;;;;;;7.90;4.30;;;;;;;16.74;84.10;100501.74;104365;1277;108644;-70
2022/07/06 03:05:59;;;;;;;8.70;4.20;;;;;;;16.74;84.09;100503.20;104189;1278;138595;-69
2022/07/06 03:08:29;;;;;;;8.20;4.50;;;;;;;16.71;84.34;100503.52;104355;1277;94332;-69
2022/07/06 03:10:56;;;;;;;8.20;4.20;;;;;;;16.74;84.10;100510.90;104267;1277;138636;-70
2022/07/06 03:13:24;;;;;;;8.80;3.70;;;;;;;16.79;84.12;100509.61;104392;1277;97921;-68
2022/07/06 03:15:52;;;;;;;7.50;3.70;;;;;;;16.78;84.26;100502.08;104279;1277;138900;-69
2022/07/06 03:18:21;;;;;;;7.10;4.00;;;;;;;16.74;84.62;100496.74;104276;1277;95147;-70
2022/07/06 03:20:49;;;;;;;7.90;4.30;;;;;;;16.74;84.80;100492.46;104459;1277;94323;-70
2022/07/06 03:23:17;;;;;;;8.70;4.10;;;;;;;16.78;84.69;100490.98;104280;1277;138829;-70
2022/07/06 03:25:46;;;;;;;7.40;4.00;;;;;;;16.78;84.63;100490.41;104381;1277;99595;-69
2022/07/06 03:28:14;;;;;;;8.20;4.30;;;;;;;16.76;84.76;100484.11;104183;1277;138807;-69
2022/07/06 03:30:42;;;;;;;8.30;4.10;;;;;;;16.72;84.87;100480.31;104406;1277;94321;-69
2022/07/06 03:33:10;;;;;;;7.30;4.30;;;;;;;16.69;85.05;100481.01;104407;1277;94305;-70
2022/07/06 03:35:39;;;;;;;10.00;3.90;;;;;;;16.69;85.24;100484.77;104202;1277;138563;-70
2022/07/06 03:38:07;;;;;;;8.30;4.30;;;;;;;16.78;85.36;100485.95;104354;1277;99355;-70
2022/07/06 03:40:35;;;;;;;7.50;4.20;;;;;;;16.86;85.07;100477.13;104298;1277;137922;-67
2022/07/06 03:43:03;;;;;;;7.50;4.30;;;;;;;16.88;84.84;100472.88;103757;1277;94401;-69
2022/07/06 03:45:34;;;;;;;7.10;3.90;;;;;;;16.88;84.88;100469.14;103773;1277;95317;-70
2022/07/06 03:48:02;;;;;;;6.50;3.90;;;;;;;16.93;84.50;100470.54;104340;1277;108344;-70
2022/07/06 03:50:31;;;;;;;8.00;3.90;;;;;;;16.98;84.09;100469.71;104406;1277;99565;-69
2022/07/06 03:52:59;;;;;;;7.20;4.00;;;;;;;17.00;84.10;100469.78;104267;1277;139103;-70
2022/07/06 03:55:27;;;;;;;6.30;3.60;;;;;;;16.99;84.27;100473.45;104398;1277;94309;-69
2022/07/06 03:57:59;;;;;;;7.50;4.00;;;;;;;17.02;84.50;100477.96;104296;1277;138932;-70
2022/07/06 04:00:34;;;;;;;5.90;3.60;;;;;;;17.08;84.07;100475.50;104300;1277;108105;-70
2022/07/06 04:03:03;;;;;;;6.80;3.80;;;;;;;17.10;83.75;100472.86;104419;1277;99563;-70
2022/07/06 04:05:35;;;;;;;5.90;3.20;;;;;;;17.12;83.30;100477.96;104281;1277;138068;-69
2022/07/06 04:08:04;;;;;;;7.30;3.40;;;;;;;17.12;83.18;100472.59;104302;1277;95029;-69
2022/07/06 04:10:36;;;;;;;5.70;3.20;;;;;;;17.12;82.94;100465.96;104332;1277;137915;-70
2022/07/06 04:13:04;;;;;;;5.90;3.60;;;;;;;17.13;82.93;100465.54;104303;1277;108430;-69
2022/07/06 04:15:32;;;;;;;6.50;3.50;;;;;;;17.16;83.08;100463.41;104283;1277;99356;-69
2022/07/06 04:18:00;;;;;;;9.50;3.60;;;;;;;17.16;83.11;100464.50;104197;1277;138642;-70
2022/07/06 04:20:32;;;;;;;6.40;3.20;;;;;;;17.14;83.14;100455.98;104369;1277;94740;-71
2022/07/06 04:23:00;;;;;;;6.30;3.40;;;;;;;17.17;82.95;100460.65;104220;1277;139000;-70
2022/07/06 04:25:28;;;;;;;5.20;2.90;;;;;;;17.19;82.60;100464.52;104371;1277;108408;-70
2022/07/06 04:27:58;;;;;;;6.50;3.30;;;;;;;17.18;82.61;100465.07;104297;1277;138487;-70
2022/07/06 04:30:27;;;;;;;7.60;3.90;;;;;;;17.20;82.71;100463.17;104328;1276;109014;-71
2022/07/06 04:32:55;;;;;;;6.00;3.00;;;;;;;17.20;82.56;100462.80;104327;1277;94574;-70
2022/07/06 04:35:25;;;;;;;6.20;2.90;;;;;;;17.19;82.25;100462.13;104231;1277;137918;-70
2022/07/06 04:37:54;;;;;;;5.70;3.40;;;;;;;17.19;82.17;100465.05;104299;1277;108476;-70
2022/07/06 04:40:22;;;;;;;8.30;3.90;;;;;;;17.19;82.53;100466.98;104302;1277;139434;-70
2022/07/06 04:42:52;;;;;;;;;;;;;;;17.25;82.62;100469.94;104434;1277;109175;-70
2022/07/06 04:45:20;;;;;;;6.90;4.10;;;;;;;17.27;82.86;100471.08;104366;1277;94326;-70
2022/07/06 04:47:48;;;;;;;9.30;3.80;;;;;;;17.29;82.78;100465.27;104190;1277;138903;-70
2022/07/06 04:50:17;;;;;;;6.20;3.70;;;;;;;17.29;82.60;100465.43;104349;1277;106023;-70
2022/07/06 04:52:46;;;;;;;5.90;3.70;;;;;;;17.25;82.44;100462.02;104290;1276;139249;-70
2022/07/06 04:55:14;;;;;;;6.50;3.50;;;;;;;17.25;82.39;100457.02;104324;1277;109163;-69
2022/07/06 04:57:42;;;;;;;6.90;4.40;;;;;;;17.26;82.47;100455.18;103753;1277;138935;-70
2022/07/06 05:00:12;;;;;;;7.60;4.30;;;;;;;17.25;82.47;100453.23;104385;1277;95560;-69
2022/07/06 05:02:41;;;;;;;8.50;4.90;;;;;;;17.25;82.20;100460.26;104238;1277;207589;-71
2022/07/06 05:05:09;;;;;;;8.30;4.80;;;;;;;17.24;82.31;100459.25;104351;1276;137919;-70
2022/07/06 05:07:40;;;;;;;8.00;4.50;;;;;;;17.22;82.42;100460.41;104332;1277;108072;-70
2022/07/06 05:10:11;;;;;;;7.30;5.50;;;;;;;17.19;82.44;100464.70;104234;1277;139434;-70
2022/07/06 05:12:41;;;;;;;7.50;4.70;;;;;;;17.16;82.45;100467.71;104424;1277;94273;-70
2022/07/06 05:15:10;;;;;;;7.00;4.30;;;;;;;17.13;82.59;100471.46;104391;1277;108435;-69
2022/07/06 05:17:38;;;;;;;7.70;4.50;;;;;;;17.10;82.78;100467.30;104372;1277;139358;-70
2022/07/06 05:20:07;;;;;;;12.40;8.20;;;;;;;17.12;83.12;100467.02;104416;1277;108805;-71
2022/07/06 05:22:37;;;;;;;9.10;4.90;;;;;;;17.17;82.98;100465.69;104240;1277;139573;-70
2022/07/06 05:25:13;;;;;;;8.20;4.30;;;;;;;17.22;82.65;100466.34;104359;1277;95010;-70
2022/07/06 05:27:42;;;;;;;6.00;3.90;;;;;;;17.32;82.73;100466.00;104245;1277;138500;-70
2022/07/06 05:30:10;;;;;;;7.30;3.80;;;;;;;17.35;82.31;100467.75;104508;1277;99817;-69
2022/07/06 05:32:38;;;;;;;6.50;4.30;;;;;;;17.35;82.39;100469.04;104443;1277;108930;-70
2022/07/06 05:35:07;;;;;;;10.10;4.10;;;;;;;17.42;82.21;100467.26;104317;1277;138034;-69
2022/07/06 05:37:55;;;;;;;6.50;3.70;;;;;;;17.47;81.69;100467.88;104370;1277;94291;-70
2022/07/06 05:40:24;;;;;;;8.00;3.70;;;;;;;17.49;81.37;100467.54;104126;1277;138605;-71
2022/07/06 05:42:53;;;;;;;6.80;3.30;;;;;;;17.51;80.89;100470.17;106173;1277;99343;-70
2022/07/06 05:45:22;;;;;;;5.30;3.00;;;;;;;17.51;80.89;100476.82;104550;1277;107690;-69
2022/07/06 05:50:38;;;;;;;6.00;2.70;;;;;;;17.53;80.43;100481.73;104466;1277;94362;-70
2022/07/06 05:53:07;;;;;;;5.70;2.80;;;;;;;17.52;80.23;100484.82;104339;1277;138213;-71
2022/07/06 05:55:47;;;;;;;5.90;3.60;;;;;;;17.49;80.39;100488.76;104555;1277;99545;-70
2022/07/06 05:58:15;;;;;;;7.00;4.00;;;;;;;17.48;80.54;100489.15;104316;1277;138805;-71
2022/07/06 06:00:44;;;;;;;7.50;5.10;;;;;;;17.46;81.08;100490.38;104386;1276;94432;-71
2022/07/06 06:03:15;;;;;;;8.40;5.70;;;;;;;17.47;81.36;100493.34;104428;1277;94360;-71
2022/07/06 06:05:43;;;;;;;9.40;5.10;;;;;;;17.53;81.44;100498.08;104223;1277;139077;-71
2022/07/06 06:08:12;;;;;;;10.80;5.10;;;;;;;17.61;81.44;100496.91;104497;1276;99395;-69
2022/07/06 06:10:40;;;;;;;8.80;4.40;;;;;;;17.67;81.30;100492.06;104476;1277;139103;-68
2022/07/06 06:13:10;;;;;;;11.20;5.30;;;;;;;17.78;80.66;100493.48;104514;1277;94333;-69
2022/07/06 06:15:39;;;;;;;7.70;4.90;;;;;;;17.89;80.46;100492.91;104397;1277;138323;-70
2022/07/06 06:18:07;;;;;;;8.10;5.20;;;;;;;18.02;80.12;100491.84;104953;1276;108432;-70
2022/07/06 06:20:35;;;;;;;7.70;4.60;;;;;;;18.10;79.53;100496.45;104475;1277;99539;-70
2022/07/06 06:23:06;;;;;;;7.70;4.10;;;;;;;18.11;79.38;100498.73;104368;1277;140042;-70
2022/07/06 06:25:37;;;;;;;7.80;3.40;;;;;;;18.15;78.94;100500.99;104576;1277;94314;-71
2022/07/06 06:28:07;;;;;;;9.60;3.90;;;;;;;18.21;78.36;100499.58;104495;1277;139551;-71
2022/07/06 06:30:36;;;;;;;8.10;3.00;;;;;;;18.27;78.14;100501.08;107110;1276;108591;-69
2022/07/06 06:33:08;;;;;;;9.40;3.60;;;;;;;18.33;77.42;100493.89;104636;1277;100010;-70
2022/07/06 06:35:37;;;;;;;6.20;3.20;;;;;;;18.34;77.07;100497.20;104487;1277;138874;-69
2022/07/06 06:38:05;;;;;;;7.40;3.50;;;;;;;18.36;76.81;100495.66;104577;1277;94317;-70
2022/07/06 06:40:33;;;;;;;6.00;3.20;;;;;;;18.44;76.31;100496.31;104411;1277;138013;-70
2022/07/06 06:43:01;;;;;;;7.10;3.60;;;;;;;18.57;77.20;100493.56;104539;1274;108452;-70
2022/07/06 06:45:30;;;;;;;7.40;3.30;;;;;;;18.74;76.56;100491.68;104510;1277;99357;-70
2022/07/06 06:47:58;;;;;;;8.20;3.40;;;;;;;18.75;76.44;100491.09;104455;1277;138350;-71
2022/07/06 06:50:27;;;;;;;8.50;3.80;;;;;;;18.77;75.76;100497.98;104319;1277;94298;-70
2022/07/06 06:52:55;;;;;;;7.20;4.10;;;;;;;18.77;76.02;100497.25;104225;1277;138382;-70
2022/07/06 06:55:23;;;;;;;8.10;3.70;;;;;;;18.81;76.44;100494.48;104489;1277;108724;-70
2022/07/06 06:57:51;;;;;;;9.70;3.90;;;;;;;18.86;76.39;100493.86;104462;1277;138995;-70
2022/07/06 07:00:19;;;;;;;6.90;3.70;;;;;;;18.86;75.49;100496.70;104591;1277;108804;-70
2022/07/06 07:02:47;;;;;;;9.40;3.60;;;;;;;18.91;75.25;100499.35;104404;1277;94355;-70
2022/07/06 07:05:15;;;;;;;7.60;3.40;;;;;;;19.01;75.30;100499.78;104476;1277;138676;-71
2022/07/06 07:07:43;;;;;;;6.50;3.10;;;;;;;19.13;75.07;100497.68;104512;1277;108037;-71
2022/07/06 07:10:11;;;;;;;7.60;3.10;;;;;;;19.15;74.47;100493.04;104381;1277;138598;-71
2022/07/06 07:12:47;;;;;;;8.20;3.10;;;;;;;19.06;73.80;100492.90;104443;1277;109123;-70
2022/07/06 07:15:15;;;;;;;7.20;2.60;;;;;;;18.99;73.44;100496.89;104486;1277;94242;-70
2022/07/06 07:17:43;;;;;;;5.40;2.50;;;;;;;18.95;73.74;100505.59;104396;1277;137985;-70
2022/07/06 07:20:12;;;;;;;5.10;2.70;;;;;;;18.87;73.28;100504.78;104440;1277;107583;-70
2022/07/06 07:22:39;;;;;;;6.70;2.30;;;;;;;18.85;73.17;100500.77;104332;1277;139435;-70
2022/07/06 07:25:08;;;;;;;7.50;2.80;;;;;;;18.90;73.41;100504.09;104520;1277;108615;-71
2022/07/06 07:27:36;;;;;;;6.10;2.60;;;;;;;18.87;72.97;100502.80;104647;1277;95805;-71
2022/07/06 07:30:05;;;;;;;6.00;3.00;;;;;;;18.86;72.91;100496.88;104602;1277;94257;-71
2022/07/06 07:32:33;;;;;;;7.10;3.00;;;;;;;18.95;72.94;100500.34;104595;1277;108506;-71
2022/07/06 07:35:02;;;;;;;6.90;3.10;;;;;;;18.96;72.36;100503.17;104408;1277;138108;-71
2022/07/06 07:37:30;;;;;;;6.60;2.70;;;;;;;18.93;72.61;100504.06;104433;1277;108878;-70
2022/07/06 07:39:59;;;;;;;5.30;2.40;;;;;;;19.03;72.75;100508.00;104315;1277;138478;-70
2022/07/06 07:42:27;;;;;;;5.80;2.50;;;;;;;19.12;72.10;100507.61;104455;1277;94347;-72
2022/07/06 07:44:54;;;;;;;6.40;2.20;;;;;;;19.18;70.89;100510.70;104506;1277;108462;-69
2022/07/06 07:47:23;;;;;;;5.70;2.30;;;;;;;19.14;70.01;100513.29;104424;1276;138178;-70
2022/07/06 07:49:50;;;;;;;5.60;2.00;;;;;;;19.11;69.46;100515.97;103521;1277;108950;-71
2022/07/06 07:52:19;;;;;;;5.10;2.20;;;;;;;19.11;70.09;100517.22;104327;1276;138958;-71
2022/07/06 07:54:47;;;;;;;5.40;1.80;;;;;;;19.16;69.62;100519.43;104567;1277;94308;-71
2022/07/06 07:57:34;;;;;;;6.30;1.60;;;;;;;19.16;68.16;100517.27;104407;1276;108389;-72
2022/07/06 08:00:04;;;;;;;5.80;1.50;;;;;;;19.20;68.24;100518.30;104462;1277;99417;-70
2022/07/06 08:02:38;;;;;;;4.40;1.20;;;;;;;19.30;67.39;100518.10;104307;1277;108777;-71
2022/07/06 08:05:07;;;;;;;5.90;1.60;;;;;;;19.39;68.18;100516.98;104216;1276;138797;-70
2022/07/06 08:07:34;;;;;;;5.10;1.40;;;;;;;19.48;66.70;100512.63;104388;1277;94303;-71
2022/07/06 08:10:03;;;;;;;3.90;1.30;;;;;;;19.57;67.49;100514.97;104268;1277;137899;-72
2022/07/06 08:12:31;;;;;;;5.20;1.30;;;;;;;19.70;66.54;100518.86;104389;1277;97650;-71
2022/07/06 08:14:59;;;;;;;3.60;1.10;;;;;;;19.85;66.68;100521.17;104272;1277;106968;-71
2022/07/06 08:17:27;;;;;;;5.40;1.30;;;;;;;19.97;63.64;100520.81;104199;1276;138422;-72
2022/07/06 08:19:55;;;;;;;4.60;1.60;;;;;;;20.07;63.55;100518.70;104397;1277;94318;-72
2022/07/06 08:22:23;;;;;;;4.20;1.30;;;;;;;20.10;62.96;100518.85;104265;1277;138023;-70
2022/07/06 08:24:51;;;;;;;3.80;1.30;;;;;;;20.09;63.11;100519.15;104386;1276;99445;-72
2022/07/06 08:27:19;;;;;;;4.30;1.10;;;;;;;20.12;62.46;100517.50;104490;1276;109053;-69
2022/07/06 08:29:47;;;;;;;5.20;1.10;;;;;;;20.08;62.81;100511.98;104357;1277;138623;-70
2022/07/06 08:32:15;;;;;;;5.00;1.10;;;;;;;20.07;62.74;100511.14;104496;1277;94217;-71
2022/07/06 08:35:03;;;;;;;4.10;1.80;;;;;;;20.19;62.81;100510.58;104306;1277;137875;-71
2022/07/06 08:37:31;;;;;;;4.30;1.10;;;;;;;20.33;62.60;100508.20;104550;1277;99758;-70
2022/07/06 08:39:59;;;;;;;4.80;1.20;;;;;;;20.36;62.08;100508.58;104347;1276;138158;-70
2022/07/06 08:42:31;;;;;;;3.60;0.90;;;;;;;20.58;62.40;100513.27;104438;1277;94640;-71
2022/07/06 08:45:01;;;;;;;3.60;1.00;;;;;;;20.82;61.07;100509.15;104332;1277;94535;-70
2022/07/06 08:47:30;;;;;;;5.30;1.20;;;;;;;21.05;60.81;100506.84;104222;1276;138273;-71
2022/07/06 08:49:58;;;;;;;4.20;1.10;;;;;;;21.23;59.39;100506.35;104486;1277;99366;-71
2022/07/06 08:52:26;;;;;;;2.70;0.90;;;;;;;21.25;57.56;100508.60;104291;1277;137727;-70
2022/07/06 08:54:54;;;;;;;3.40;1.10;;;;;;;21.40;57.62;100508.27;104413;1277;94326;-70
2022/07/06 08:57:25;;;;;;;4.60;1.20;;;;;;;21.52;57.14;100510.70;104873;1276;95546;-70
2022/07/06 08:59:53;;;;;;;5.10;1.10;;;;;;;21.63;57.57;100509.75;104308;1277;139000;-70
2022/07/06 09:02:25;;;;;;;3.80;1.10;;;;;;;21.60;56.83;100517.94;104407;1277;99456;-70
2022/07/06 09:04:56;;;;;;;2.90;0.90;;;;;;;21.60;57.28;100512.48;104265;1277;138541;-71
2022/07/06 09:07:27;;;;;;;4.90;1.00;;;;;;;21.80;56.21;100513.26;104417;1277;94665;-71
2022/07/06 09:10:24;;;;;;;4.20;0.80;;;;;;;21.86;56.33;100514.98;105783;1276;138098;-71
2022/07/06 09:12:53;;;;;;;3.40;0.80;;;;;;;21.74;54.33;100508.08;104375;1277;107330;-72
2022/07/06 09:15:27;;;;;;;3.90;0.90;;;;;;;21.55;55.12;100512.08;104421;1277;99285;-71
2022/07/06 09:17:57;;;;;;;2.50;0.90;;;;;;;21.35;55.20;100516.33;104527;1277;137760;-72
2022/07/06 09:20:26;;;;;;;4.20;1.00;;;;;;;21.36;55.94;100516.28;104352;1277;94537;-71
2022/07/06 09:22:59;;;;;;;3.50;0.80;;;;;;;21.74;54.31;100513.62;104310;1277;137949;-72
2022/07/06 09:25:27;;;;;;;2.90;0.90;;;;;;;22.13;54.79;100511.55;104383;1277;106655;-72
2022/07/06 09:27:57;;;;;;;3.80;0.80;;;;;;;22.29;51.44;100509.31;104284;1276;138325;-72
2022/07/06 09:30:26;;;;;;;2.60;0.80;;;;;;;22.63;49.36;100505.17;104387;1277;108907;-72
2022/07/06 09:32:57;;;;;;;4.70;1.10;;;;;;;23.64;45.54;100496.41;104393;1276;94411;-72
2022/07/06 09:35:29;;;;;;;3.10;0.80;;;;;;;24.01;44.61;100499.81;104307;1276;137776;-72
2022/07/06 09:38:06;;;;;;;3.00;0.80;;;;;;;25.17;44.39;100493.08;104276;1277;108446;-72
2022/07/06 09:40:36;;;;;;;4.80;0.90;;;;;;;26.41;41.06;100491.20;104138;1277;138485;-71
2022/07/06 09:43:08;;;;;;;5.30;1.10;;;;;;;26.75;40.20;100487.63;104504;1277;108883;-70
2022/07/06 09:45:36;;;;;;;4.00;0.70;;;;;;;26.83;39.49;100495.60;104266;1277;94644;-71
2022/07/06 09:48:13;;;;;;;4.00;0.80;;;;;;;26.85;39.69;100496.34;104236;1277;94559;-72
2022/07/06 09:50:47;;;;;;;3.70;0.90;;;;;;;26.49;39.32;100496.11;104400;1277;108453;-73
2022/07/06 09:53:15;;;;;;;4.20;1.00;;;;;;;26.20;39.74;100497.92;104254;1276;138106;-75
2022/07/06 09:55:45;;;;;;;3.10;0.70;;;;;;;26.34;39.65;100499.15;104244;1276;108805;-75
2022/07/06 09:58:14;;;;;;;4.20;0.70;;;;;;;27.77;38.05;100494.02;104154;1277;138334;-72
2022/07/06 10:00:44;;;;;;;5.00;0.90;;;;;;;28.02;37.09;100491.20;104331;1277;94369;-71
2022/07/06 10:03:14;;;;;;;2.50;0.50;;;;;;;27.84;35.24;100493.83;104258;1276;108345;-72
2022/07/06 10:05:46;;;;;;;2.40;0.50;;;;;;;27.61;34.77;100491.93;104224;1277;138636;-71
2022/07/06 10:08:16;;;;;;;1.60;0.50;;;;;;;27.25;35.30;100495.48;104265;1277;108845;-71
2022/07/06 10:10:44;;;;;;;2.80;0.60;;;;;;;27.32;35.17;100488.81;104152;1277;138203;-71
2022/07/06 10:13:19;;;;;;;2.40;0.60;;;;;;;28.25;33.61;100493.08;104211;1277;95577;-72
2022/07/06 10:15:47;;;;;;;3.60;0.50;;;;;;;29.21;31.79;100492.77;104261;1276;139161;-72
2022/07/06 10:18:16;;;;;;;2.70;0.70;;;;;;;29.99;30.88;100488.46;104339;1276;99499;-72
2022/07/06 10:20:44;;;;;;;4.20;0.70;;;;;;;30.86;30.68;100492.60;104356;1277;108783;-69
2022/07/06 10:23:12;;;;;;;2.70;0.60;;;;;;;31.79;29.51;100492.96;104034;1277;138082;-71
2022/07/06 10:25:41;;;;;;;2.50;0.80;;;;;;;32.28;27.67;100498.02;104285;1277;94715;-72
2022/07/06 10:28:14;;;;;;;2.80;0.60;;;;;;;32.77;26.95;100502.37;104177;1277;138039;-73
2022/07/06 10:30:45;;;;;;;3.20;0.50;;;;;;;32.51;27.28;100500.67;104475;1276;97936;-72
2022/07/06 10:33:15;;;;;;;2.90;0.50;;;;;;;32.29;27.82;100500.89;104189;1277;108875;-71
2022/07/06 10:35:44;;;;;;;3.70;0.60;;;;;;;32.66;28.01;100500.58;104317;1276;138348;-71
2022/07/06 10:38:12;;;;;;;3.00;0.60;;;;;;;31.99;27.61;100496.22;104298;1277;95710;-71
2022/07/06 10:43:33;;;;;;;3.90;0.70;;;;;;;32.83;26.08;100498.50;104319;1277;98449;-73
2022/07/06 10:46:11;;;;;;;2.70;0.40;;;;;;;33.26;25.85;100500.58;104750;1277;138509;-71
2022/07/06 10:48:49;;;;;;;3.50;0.80;;;;;;;32.81;25.99;100502.45;104357;1277;95502;-71
2022/07/06 10:51:24;;;;;;;3.00;0.60;;;;;;;31.69;26.58;100505.55;104244;1275;97565;-71
2022/07/06 10:54:05;;;;;;;2.60;0.60;;;;;;;31.11;26.87;100506.31;104493;1277;138096;-71
2022/07/06 10:56:37;;;;;;;3.00;0.70;;;;;;;31.89;27.08;100500.14;104294;1276;99648;-70
2022/07/06 10:59:11;;;;;;;2.50;0.50;;;;;;;32.67;25.62;100501.73;104234;1277;138182;-71
2022/07/06 11:01:39;;;;;;;3.20;0.50;;;;;;;33.35;25.18;100500.55;104325;1276;95305;-71
2022/07/06 11:04:14;;;;;;;4.10;0.60;;;;;;;33.80;23.96;100500.19;104302;1277;138739;-71
2022/07/06 11:06:45;;;;;;;3.50;0.70;;;;;;;33.82;23.72;100501.11;104315;1276;109074;-70
2022/07/06 11:09:15;;;;;;;3.00;0.60;;;;;;;33.14;24.29;100503.57;104317;1277;100132;-70
2022/07/06 11:11:45;;;;;;;3.00;0.50;;;;;;;32.37;24.85;100504.23;104306;1277;138694;-70
2022/07/06 11:14:17;;;;;;;3.40;0.50;;;;;;;31.62;25.74;100502.73;104288;1277;95131;-70
2022/07/06 11:16:48;;;;;;;3.40;0.70;;;;;;;30.77;26.71;100504.84;104233;1276;138161;-70
2022/07/06 11:19:20;;;;;;;2.80;0.60;;;;;;;30.20;28.05;100504.36;104381;1277;106859;-72
2022/07/06 11:21:56;;;;;;;3.50;0.70;;;;;;;29.66;28.04;100500.48;104251;1274;138460;-71
2022/07/06 11:24:29;;;;;;;2.20;0.60;;;;;;;29.31;29.25;100501.64;104477;1277;109765;-70
2022/07/06 11:26:58;;;;;;;2.10;0.50;;;;;;;28.92;29.47;100496.72;104309;1277;95228;-70
2022/07/06 11:29:28;;;;;;;3.40;0.80;;;;;;;28.60;30.02;100496.40;104172;1277;138044;-70